Latest Coastal Weather Observations for Maatsuyker Island

IDT60701

Issued at 2:05 am EST Tuesday 23 September 2014 (issued every 10 minutes, with the page automatically refreshed every 10 minutes)

About coastal observations | Map of coastal stations | Coastal observations for TAS | Marine services | Other Formats
Station Details ID: 094041 Name: MAATSUYKER ISLAND LIGHTHOUSE Lat: -43.66 Lon: 146.27 Height: 146.5 m
Data from the previous 72 hours. | See also: Recent months at Maatsuyker Island
Date/Time
EST
Temp

°C
Wind Pressure Rain
since 9am
mm
Weather Cloud Vis
km
Sea
Height
m
Swell
Dir
 
Speed
knots
Gust
knots
hPa Trend Height
m
Period
s
Dir
23/02:00am 12.7 NNW 22 28 1021.8 - 0.0 - - - - - - -
23/01:30am 12.5 NNW 22 29 1022.1 - 0.0 - - - - - - -
23/01:00am 12.5 NNW 23 29 1022.1 - 0.0 - - - - - - -
23/12:30am 12.8 NNW 22 28 1022.2 - 0.0 - - - - - - -
23/12:00am 12.5 NNW 21 28 1022.4 - 0.0 - - - - - - -
 
Date/Time
EST
Temp

°C
Wind Pressure Rain
since 9am
mm
Weather Cloud Vis
km
Sea
Height
m
Swell
Dir
 
Speed
knots
Gust
knots
hPa Trend Height
m
Period
s
Dir
22/11:30pm 12.3 NNW 22 28 1022.2 - 0.0 - - - - - - -
22/11:00pm 12.2 NNW 21 27 1022.3 - 0.0 - - - - - - -
22/10:30pm 12.1 NNW 21 27 1022.3 - 0.0 - - - - - - -
22/10:00pm 12.2 NNW 23 29 1022.4 - 0.0 - - - - - - -
22/09:30pm 12.0 NNW 24 31 1022.6 - 0.0 - - - - - - -
22/09:00pm 12.1 NNW 25 31 1022.8 - 0.0 - - - - - - -
22/08:30pm 12.3 NNW 24 30 1022.5 - 0.0 - - - - - - -
22/08:00pm 12.1 NNW 25 32 1022.4 - 0.0 - - - - - - -
22/07:30pm 11.9 NNW 26 31 1021.9 - 0.0 - - - - - - -
22/07:00pm 11.6 NW 29 34 1021.9 - 0.0 - - - - - - -
22/06:30pm 11.9 NW 27 32 1021.5 - 0.0 - - - - - - -
22/06:00pm 12.7 NNW 28 35 1021.3 - 0.0 - - - - - - -
22/05:31pm 12.2 NNW 27 37 1020.3 - 0.0 - - - - - - -
22/05:30pm 12.1 NNW 27 36 1020.4 - 0.0 - - - - - - -
22/05:00pm 11.7 NW 32 37 1020.8 - 0.0 - - - - - - -
22/04:30pm 11.7 NW 31 37 1021.3 - 0.0 - - - - - - -
22/04:00pm 11.8 NW 28 34 1021.5 - 0.0 - - - - - - -
22/03:30pm 12.2 NW 27 34 1022.0 - 0.0 - - - - - - -
22/03:00pm 12.2 WNW 23 30 1022.3 F 0.0 Haze Mostly cloudy 8 2 3.5 14 SW
22/02:30pm 12.3 NNW 26 30 1021.6 - 0.0 - - - - - - -
22/02:00pm 12.0 NNW 26 32 1021.8 - 0.0 - - - - - - -
22/01:30pm 12.2 NW 27 33 1022.3 - 0.0 - - - - - - -
22/01:00pm 12.4 NW 28 34 1022.5 - 0.0 - - - - - - -
22/12:30pm 12.4 NW 28 32 1022.9 - 0.0 - - - - - - -
22/12:00pm 12.0 NW 26 31 1023.6 - 0.0 - - - - - - -
22/11:30am 11.7 NW 27 31 1023.6 - 0.0 - - - - - - -
22/11:00am 11.5 NW 28 32 1023.8 - 0.0 - - - - - - -
22/10:30am 11.4 NW 26 30 1024.4 - 0.0 - - - - - - -
22/10:00am 11.4 NNW 20 24 1024.6 - 0.0 - - - - - - -
22/09:30am 11.3 NNW 17 21 1024.9 - 0.0 - - - - - - -
22/09:00am 10.7 NW 12 22 1025.3 F 0.0 Haze Mostly clear 18 1 2.5 15 SW
22/08:30am 10.3 NNW 16 21 1025.5 - 0.0 - - - - - - -
22/08:00am 9.4 NNW 14 17 1025.7 - 0.0 - - - - - - -
22/07:30am 8.9 NNW 14 17 1025.7 - 0.0 - - - - - - -
22/07:00am 9.1 NNW 16 21 1025.3 - 0.0 - - - - - - -
22/06:30am 9.0 NW 16 22 1025.3 - 0.0 - - - - - - -
22/06:00am 9.0 WNW 13 20 1025.4 F 0.0 Haze Mostly clear 15 <0.5 2.5 13 SW
22/05:30am 9.2 NNW 18 23 1024.9 - 0.0 - - - - - - -
22/05:00am 9.3 NNW 17 22 1024.7 - 0.0 - - - - - - -
22/04:30am 9.2 NNW 16 21 1025.0 - 0.0 - - - - - - -
22/04:00am 9.3 NNW 17 20 1025.0 - 0.0 - - - - - - -
22/03:30am 9.6 NNW 17 21 1025.2 - 0.0 - - - - - - -
22/03:00am 9.7 NNW 18 22 1025.4 - 0.0 - - - - - - -
22/02:30am 9.8 NNW 15 20 1025.7 - 0.0 - - - - - - -
22/02:00am 9.9 NNW 15 19 1026.1 - 0.0 - - - - - - -
22/01:30am 10.0 NNW 14 19 1026.4 - 0.0 - - - - - - -
22/01:00am 10.1 NNW 16 20 1026.7 - 0.0 - - - - - - -
22/12:30am 10.4 NNW 17 21 1026.6 - 0.0 - - - - - - -
22/12:00am 10.5 NNW 16 21 1027.1 - 0.0 - - - - - - -
 
Date/Time
EST
Temp

°C
Wind Pressure Rain
since 9am
mm
Weather Cloud Vis
km
Sea
Height
m
Swell
Dir
 
Speed
knots
Gust
knots
hPa Trend Height
m
Period
s
Dir
21/11:30pm 10.7 NNW 17 22 1026.9 - 0.0 - - - - - - -
21/11:00pm 10.7 NNW 17 22 1027.1 - 0.0 - - - - - - -
21/10:30pm 10.7 NNW 16 21 1027.5 - 0.0 - - - - - - -
21/10:00pm 10.8 NNW 22 27 1027.5 - 0.0 - - - - - - -
21/09:30pm 11.0 NNW 22 27 1027.6 - 0.0 - - - - - - -
21/09:00pm 11.0 NW 27 32 1027.9 - 0.0 - - - - - - -
21/08:30pm 10.9 NNW 25 31 1027.5 - 0.0 - - - - - - -
21/08:00pm 10.7 NNW 26 31 1027.6 - 0.0 - - - - - - -
21/07:30pm 10.6 NNW 23 28 1027.6 - 0.0 - - - - - - -
21/07:00pm 10.6 NW 26 30 1027.6 - 0.0 - - - - - - -
21/06:30pm 10.7 NW 27 30 1027.3 - 0.0 - - - - - - -
21/06:00pm 10.7 NNW 28 31 1027.1 - 0.0 - - - - - - -
21/05:30pm 10.6 NW 34 38 1026.6 - 0.0 - - - - - - -
21/05:00pm 11.2 NW 32 35 1026.7 - 0.0 - - - - - - -
21/04:30pm 10.8 NW 32 36 1026.4 - 0.0 - - - - - - -
21/04:00pm 11.2 NNW 29 34 1026.4 - 0.0 - - - - - - -
21/03:30pm 10.9 NW 31 36 1026.2 - 0.0 - - - - - - -
21/03:00pm 11.2 WNW 28 36 1026.3 R 0.0 Haze Partly cloudy 8 2 2.0 14 SW
21/02:30pm 11.4 NW 33 36 1026.4 - 0.0 - - - - - - -
21/02:00pm 11.3 NW 34 38 1026.5 - 0.0 - - - - - - -
21/01:30pm 11.2 NW 34 39 1026.4 - 0.0 - - - - - - -
21/01:00pm 11.3 NW 34 37 1026.4 - 0.0 - - - - - - -
21/12:30pm 11.4 NW 34 39 1026.6 - 0.0 - - - - - - -
21/12:00pm 11.2 NW 34 38 1026.9 - 0.0 - - - - - - -
21/11:30am 11.4 NW 32 36 1026.5 - 0.0 - - - - - - -
21/11:00am 11.2 NW 32 37 1026.5 - 0.0 - - - - - - -
21/10:30am 10.9 NW 30 35 1026.5 - 0.0 - - - - - - -
21/10:00am 10.8 NW 31 34 1026.7 - 0.0 - - - - - - -
21/09:30am 10.5 NW 30 33 1026.9 - 0.0 - - - - - - -
21/09:00am 10.4 WNW 24 34 1027.0 R 1.4 Haze Partly cloudy 20 2 2.5 13 S
21/08:30am 10.1 NW 28 32 1026.8 - 1.4 - - - - - - -
21/08:00am 9.8 NW 29 32 1026.5 - 1.4 - - - - - - -
21/07:30am 9.9 NW 28 31 1026.3 - 1.4 - - - - - - -
21/07:00am 9.7 NW 28 31 1026.1 - 1.4 - - - - - - -
21/06:30am 9.7 WNW 27 29 1026.1 - 1.4 - - - - - - -
21/06:00am 10.0 WSW 22 29 1025.6 R 1.4 Haze Mostly cloudy 8 1 2.5 13 SW
21/05:30am 9.9 WNW 26 30 1025.4 - 1.4 - - - - - - -
21/05:00am 9.8 WNW 27 31 1025.1 - 1.4 - - - - - - -
21/04:30am 9.8 WNW 25 30 1025.1 - 1.4 - - - - - - -
21/04:00am 9.9 WNW 27 30 1025.1 - 1.4 - - - - - - -
21/03:30am 10.1 WNW 27 32 1025.0 - 1.2 - - - - - - -
21/03:00am 10.3 NW 35 39 1024.1 - 1.2 - - - - - - -
21/02:30am 10.2 NW 35 39 1023.9 - 1.0 - - - - - - -
21/02:00am 10.6 NW 35 39 1023.8 - 1.0 - - - - - - -
21/01:30am 10.2 NW 34 39 1023.9 - 1.0 - - - - - - -
21/01:00am 10.3 NW 34 39 1024.4 - 1.0 - - - - - - -
21/12:30am 9.8 NW 33 37 1024.2 - 0.8 - - - - - - -
21/12:00am 10.1 NW 35 40 1024.3 - 0.2 - - - - - - -
 
Date/Time
EST
Temp

°C
Wind Pressure Rain
since 9am
mm
Weather Cloud Vis
km
Sea
Height
m
Swell
Dir
 
Speed
knots
Gust
knots
hPa Trend Height
m
Period
s
Dir
20/11:30pm 10.6 NW 36 40 1024.2 - 0.0 - - - - - - -
20/11:00pm 10.8 NW 32 37 1024.2 - 0.0 - - - - - - -
20/10:30pm 10.8 NNW 31 37 1024.2 - 0.0 - - - - - - -
20/10:00pm 10.7 NW 33 37 1024.4 - 0.0 - - - - - - -
20/09:30pm 10.7 NW 32 35 1024.7 - 0.0 - - - - - - -
20/09:00pm 10.7 NW 33 37 1025.1 - 0.0 - - - - - - -
20/08:30pm 10.8 NW 34 39 1024.9 - 0.0 - - - - - - -
20/08:00pm 10.8 NW 35 38 1024.8 - 0.0 - - - - - - -
20/07:30pm 10.7 NW 34 38 1024.9 - 0.0 - - - - - - -
20/07:00pm 10.7 NW 33 36 1024.6 - 0.0 - - - - - - -
20/06:30pm 10.6 NW 33 38 1024.6 - 0.0 - - - - - - -
20/06:00pm 10.6 NW 31 34 1024.5 - 0.0 - - - - - - -
20/05:30pm 10.6 NW 33 37 1023.9 - 0.0 - - - - - - -
20/05:00pm 10.4 NW 32 37 1023.6 - 0.0 - - - - - - -
20/04:30pm 10.8 NW 32 36 1023.1 - 0.0 - - - - - - -
20/04:00pm 11.2 NW 31 34 1023.2 - 0.0 - - - - - - -
20/03:30pm 10.6 NW 31 34 1023.8 - 0.0 - - - - - - -
20/03:00pm 10.8 WSW 25 36 1023.7 R 0.0 Recent precip. Cloudy 12 2 4.0 14 SW
20/02:30pm 9.7 NW 32 36 1023.8 - 0.0 - - - - - - -
20/02:00pm 11.0 NW 29 32 1023.8 - 0.0 - - - - - - -
20/01:30pm 10.3 NW 29 35 1023.6 - 0.0 - - - - - - -
20/01:00pm 9.9 WNW 28 33 1024.1 - 0.0 - - - - - - -
20/12:30pm 10.5 NW 26 30 1023.9 - 0.0 - - - - - - -
20/12:00pm 9.4 WNW 28 33 1024.1 - 0.0 - - - - - - -
20/11:30am 10.6 WNW 28 32 1024.1 - 0.0 - - - - - - -
20/11:00am 9.7 NW 30 35 1023.7 - 0.0 - - - - - - -
20/10:30am 9.7 NW 28 33 1023.5 - 0.0 - - - - - - -
20/10:00am 9.6 WNW 21 25 1024.0 - 0.0 - - - - - - -
20/09:42am 10.4 WNW 25 35 1023.5 - 0.0 - - - - - - -
20/09:30am 10.6 WNW 25 28 1023.8 - 0.0 - - - - - - -
20/09:00am 10.0 SW 21 32 1023.4 R 0.8 Showers Mostly cloudy 14 2 3.0 13 SW
20/08:30am 10.2 WNW 26 31 1023.5 - 0.8 - - - - - - -
20/08:00am 10.0 WNW 20 23 1023.3 - 0.6 - - - - - - -
20/07:30am 9.8 WNW 20 25 1023.3 - 0.6 - - - - - - -
20/07:00am 9.2 WNW 19 25 1023.0 - 0.6 - - - - - - -
20/06:30am 9.9 WNW 25 29 1022.5 - 0.6 - - - - - - -
20/06:00am 9.9 WSW 19 29 1022.0 R 0.6 Showers Cloudy 10 1 3.0 13 SW
20/05:30am 9.9 WNW 21 25 1021.9 - 0.6 - - - - - - -
20/05:00am 9.9 W 16 21 1021.8 - 0.6 - - - - - - -
20/04:30am 9.7 WNW 19 23 1021.5 - 0.6 - - - - - - -
20/04:00am 9.8 W 16 21 1021.5 - 0.6 - - - - - - -
20/03:30am 9.6 WNW 20 24 1021.3 - 0.6 - - - - - - -
20/03:00am 9.6 W 16 25 1021.1 - 0.6 - - - - - - -
20/02:30am 9.4 W 19 26 1021.0 - 0.6 - - - - - - -

Other Formats:

Comma delimited format used in spreadsheet applications
http://www.bom.gov.au/fwo/IDT60701/IDT60701.94962.axf

JavaScript Object Notation format (JSON) in row-major order
http://www.bom.gov.au/fwo/IDT60701/IDT60701.94962.json